createdAt,value
2017-11-04T00:00:17.721Z,999.7
2017-11-04T00:01:19.118Z,999.7
2017-11-04T00:02:20.507Z,999.7
2017-11-04T00:03:21.897Z,999.7
2017-11-04T00:04:23.303Z,999.6
2017-11-04T00:05:24.784Z,999.6
2017-11-04T00:06:26.177Z,999.6
2017-11-04T00:07:27.572Z,999.7
2017-11-04T00:08:28.966Z,999.7
2017-11-04T00:09:30.353Z,999.7
2017-11-04T00:10:31.775Z,999.7
2017-11-04T00:11:33.165Z,999.7
2017-11-04T00:12:34.555Z,999.6
2017-11-04T00:13:35.950Z,999.6
2017-11-04T00:14:37.342Z,999.6
2017-11-04T00:15:38.745Z,999.6
2017-11-04T00:16:40.134Z,999.6
2017-11-04T00:17:41.526Z,999.6
2017-11-04T00:18:42.915Z,999.5
2017-11-04T00:19:44.306Z,999.5
2017-11-04T00:20:45.700Z,999.5
2017-11-04T00:21:47.092Z,999.5
2017-11-04T00:22:48.487Z,999.5
2017-11-04T00:23:49.875Z,999.5
2017-11-04T00:24:51.266Z,999.5
2017-11-04T00:25:52.661Z,999.5
2017-11-04T00:26:54.059Z,999.5
2017-11-04T00:27:55.456Z,999.4
2017-11-04T00:28:56.841Z,999.4
2017-11-04T00:29:58.238Z,999.5
2017-11-04T00:30:59.634Z,999.4
2017-11-04T00:32:01.024Z,999.4
2017-11-04T00:33:02.414Z,999.5
2017-11-04T00:34:03.811Z,999.4
2017-11-04T00:35:05.203Z,999.4
2017-11-04T00:36:06.595Z,999.4
2017-11-04T00:37:07.990Z,999.4
2017-11-04T00:38:09.374Z,999.4
2017-11-04T00:39:10.772Z,999.3
2017-11-04T00:40:12.257Z,999.4
2017-11-04T00:41:13.647Z,999.3
2017-11-04T00:42:15.039Z,999.3
2017-11-04T00:43:16.431Z,999.3
2017-11-04T00:44:17.828Z,999.3
2017-11-04T00:45:19.215Z,999.3
2017-11-04T00:46:20.623Z,999.3
2017-11-04T00:47:22.010Z,999.4
2017-11-04T00:48:23.401Z,999.3
2017-11-04T00:49:24.792Z,999.3
2017-11-04T00:50:26.185Z,999.3
2017-11-04T00:51:27.576Z,999.3
2017-11-04T00:52:28.968Z,999.3
2017-11-04T00:53:30.361Z,999.3
2017-11-04T00:54:31.752Z,999.3
2017-11-04T00:55:33.144Z,999.3
2017-11-04T00:56:34.538Z,999.2
2017-11-04T00:57:35.933Z,999.2
2017-11-04T00:58:37.325Z,999.3
2017-11-04T00:59:38.727Z,999.2
2017-11-04T01:00:40.115Z,999.2
2017-11-04T01:01:41.516Z,999.2
2017-11-04T01:02:42.965Z,999.2
2017-11-04T01:03:44.360Z,999.2
2017-11-04T01:04:45.753Z,999.1
2017-11-04T01:05:47.147Z,999.1
2017-11-04T01:06:48.538Z,999.2
2017-11-04T01:07:49.928Z,999.1
2017-11-04T01:08:51.320Z,999.1
2017-11-04T01:09:52.715Z,999.1
2017-11-04T01:10:54.101Z,999.1
2017-11-04T01:11:55.496Z,999.1
2017-11-04T01:12:56.887Z,999.1
2017-11-04T01:13:58.278Z,999.1
2017-11-04T01:14:59.684Z,999.0
2017-11-04T01:16:01.065Z,999.0
2017-11-04T01:17:02.452Z,999.1
2017-11-04T01:18:03.847Z,999.0
2017-11-04T01:19:05.237Z,999.0
2017-11-04T01:20:06.632Z,999.0
2017-11-04T01:21:08.021Z,999.0
2017-11-04T01:22:09.411Z,998.9
2017-11-04T01:23:10.824Z,998.9
2017-11-04T01:24:12.194Z,998.9
2017-11-04T01:25:13.585Z,998.9
2017-11-04T01:26:14.980Z,998.9
2017-11-04T01:27:16.376Z,998.9
2017-11-04T01:28:17.765Z,998.9
2017-11-04T01:29:19.156Z,998.8
2017-11-04T01:30:20.548Z,998.8
2017-11-04T01:31:21.944Z,998.8
2017-11-04T01:32:23.331Z,998.8
2017-11-04T01:33:24.720Z,998.7
2017-11-04T01:34:26.116Z,998.7
2017-11-04T01:35:27.507Z,998.7
2017-11-04T01:36:28.900Z,998.7
2017-11-04T01:37:30.289Z,998.7
2017-11-04T01:38:31.682Z,998.6
2017-11-04T01:39:33.077Z,998.6
2017-11-04T01:40:34.469Z,998.6
2017-11-04T01:41:35.861Z,998.6
2017-11-04T01:42:37.251Z,998.6
2017-11-04T01:43:38.643Z,998.5
2017-11-04T01:44:40.036Z,998.6
2017-11-04T01:45:41.432Z,998.6
2017-11-04T01:46:42.820Z,998.5
2017-11-04T01:47:44.214Z,998.5
2017-11-04T01:48:45.610Z,998.5
2017-11-04T01:49:46.999Z,998.5
2017-11-04T01:50:48.391Z,998.5
2017-11-04T01:51:49.785Z,998.4
2017-11-04T01:52:51.176Z,998.5
2017-11-04T01:53:52.576Z,998.3
2017-11-04T01:54:53.975Z,998.3
2017-11-04T01:55:55.368Z,998.4
2017-11-04T01:56:56.757Z,998.3
2017-11-04T01:57:58.151Z,998.3
2017-11-04T01:58:59.540Z,998.3
2017-11-04T02:00:00.939Z,998.3
2017-11-04T02:01:02.331Z,998.3
2017-11-04T02:02:03.722Z,998.3
2017-11-04T02:03:05.116Z,998.3
2017-11-04T02:04:06.506Z,998.3
2017-11-04T02:05:07.912Z,998.3
2017-11-04T02:06:09.293Z,998.3
2017-11-04T02:07:10.688Z,998.3
2017-11-04T02:08:12.087Z,998.3
2017-11-04T02:09:13.479Z,998.3
2017-11-04T02:10:14.873Z,998.2
2017-11-04T02:11:16.262Z,998.2
2017-11-04T02:12:17.655Z,998.2
2017-11-04T02:13:19.045Z,998.2
2017-11-04T02:14:20.436Z,998.2
2017-11-04T02:15:21.836Z,998.2
2017-11-04T02:16:23.231Z,998.2
2017-11-04T02:17:24.625Z,998.3
2017-11-04T02:18:26.013Z,998.3
2017-11-04T02:19:27.408Z,998.3
2017-11-04T02:20:28.799Z,998.3
2017-11-04T02:21:30.193Z,998.3
2017-11-04T02:22:31.583Z,998.3
2017-11-04T02:23:32.976Z,998.3
2017-11-04T02:24:34.371Z,998.3
2017-11-04T02:25:35.765Z,998.3
2017-11-04T02:26:37.151Z,998.2
2017-11-04T02:27:38.542Z,998.3
2017-11-04T02:28:39.935Z,998.2
2017-11-04T02:29:41.328Z,998.2
2017-11-04T02:30:42.722Z,998.2
2017-11-04T02:31:44.115Z,998.2
2017-11-04T02:32:45.504Z,998.1
2017-11-04T02:33:46.903Z,998.1
2017-11-04T02:34:48.295Z,998.2
2017-11-04T02:35:49.685Z,998.2
2017-11-04T02:36:51.074Z,998.1
2017-11-04T02:37:52.466Z,998.1
2017-11-04T02:38:53.858Z,998.1
2017-11-04T02:39:55.248Z,998.1
2017-11-04T02:40:56.644Z,998.0
2017-11-04T02:41:58.039Z,998.1
2017-11-04T02:42:59.430Z,998.0
2017-11-04T02:44:00.820Z,998.0
2017-11-04T02:45:02.214Z,998.0
2017-11-04T02:46:03.665Z,998.1
2017-11-04T02:47:05.075Z,998.0
2017-11-04T02:48:06.471Z,998.0
2017-11-04T02:49:07.863Z,998.0
2017-11-04T02:50:09.253Z,998.0
2017-11-04T02:51:10.646Z,998.0
2017-11-04T02:52:12.038Z,997.9
2017-11-04T02:53:13.449Z,997.9
2017-11-04T02:54:14.828Z,997.9
2017-11-04T02:55:16.221Z,998.0
2017-11-04T02:56:17.617Z,998.0
2017-11-04T02:57:19.001Z,997.9
2017-11-04T02:58:20.390Z,997.9
2017-11-04T02:59:21.786Z,997.9
2017-11-04T03:00:23.184Z,997.9
2017-11-04T03:01:24.568Z,997.9
2017-11-04T03:02:25.963Z,997.9
2017-11-04T03:03:27.355Z,997.9
2017-11-04T03:04:28.747Z,997.9
2017-11-04T03:05:30.147Z,997.9
2017-11-04T03:06:31.533Z,997.8
2017-11-04T03:07:32.927Z,997.9
2017-11-04T03:08:34.319Z,997.9
2017-11-04T03:09:35.710Z,997.9
2017-11-04T03:10:37.099Z,997.8
2017-11-04T03:11:38.489Z,997.9
2017-11-04T03:12:39.882Z,997.9
2017-11-04T03:13:41.277Z,997.9
2017-11-04T03:14:42.667Z,997.9
2017-11-04T03:15:44.065Z,997.9
2017-11-04T03:16:45.455Z,997.8
2017-11-04T03:17:46.842Z,997.8
2017-11-04T03:18:48.234Z,997.8
2017-11-04T03:19:49.626Z,997.9
2017-11-04T03:20:51.017Z,997.9
2017-11-04T03:21:52.412Z,997.9
2017-11-04T03:22:53.802Z,997.8
2017-11-04T03:23:55.191Z,997.8
2017-11-04T03:24:56.599Z,997.7
2017-11-04T03:25:57.978Z,997.7
2017-11-04T03:26:59.372Z,997.8
2017-11-04T03:28:00.766Z,997.7
2017-11-04T03:29:02.159Z,997.7
2017-11-04T03:30:03.560Z,997.7
2017-11-04T03:31:04.943Z,997.7
2017-11-04T03:32:06.334Z,997.7
2017-11-04T03:33:07.726Z,997.7
2017-11-04T03:34:09.118Z,997.7
2017-11-04T03:35:10.515Z,997.8
2017-11-04T03:36:11.902Z,997.7
2017-11-04T03:37:13.289Z,997.7
2017-11-04T03:38:14.700Z,997.7
2017-11-04T03:39:16.092Z,997.7
2017-11-04T03:40:17.479Z,997.7
2017-11-04T03:41:18.875Z,997.7
2017-11-04T03:42:20.267Z,997.7
2017-11-04T03:43:21.660Z,997.7
2017-11-04T03:44:23.058Z,997.7
2017-11-04T03:45:24.445Z,997.7
2017-11-04T03:46:25.837Z,997.6
2017-11-04T03:47:27.235Z,997.6
2017-11-04T03:48:28.629Z,997.6
2017-11-04T03:49:30.022Z,997.6
2017-11-04T03:50:31.416Z,997.6
2017-11-04T03:51:32.804Z,997.6
2017-11-04T03:52:34.199Z,997.6
2017-11-04T03:53:35.586Z,997.6
2017-11-04T03:54:36.979Z,997.6
2017-11-04T03:55:38.373Z,997.6
2017-11-04T03:56:39.767Z,997.5
2017-11-04T03:57:41.160Z,997.5
2017-11-04T03:58:42.552Z,997.5
2017-11-04T03:59:43.944Z,997.5
2017-11-04T04:00:45.338Z,997.4
2017-11-04T04:01:46.727Z,997.4
2017-11-04T04:02:48.121Z,997.4
2017-11-04T04:03:49.518Z,997.4
2017-11-04T04:04:50.909Z,997.4
2017-11-04T04:05:52.300Z,997.4
2017-11-04T04:06:53.698Z,997.4
2017-11-04T04:07:55.082Z,997.4
2017-11-04T04:08:56.473Z,997.4
2017-11-04T04:09:57.864Z,997.2
2017-11-04T04:10:59.258Z,997.2
2017-11-04T04:12:00.655Z,997.3
2017-11-04T04:13:02.041Z,997.2
2017-11-04T04:14:03.431Z,997.2
2017-11-04T04:15:04.826Z,997.2
2017-11-04T04:16:06.248Z,997.1
2017-11-04T04:17:07.609Z,997.1
2017-11-04T04:18:09.000Z,997.2
2017-11-04T04:19:10.394Z,997.2
2017-11-04T04:20:11.784Z,997.2
2017-11-04T04:21:13.172Z,997.1
2017-11-04T04:22:14.571Z,997.2
2017-11-04T04:23:15.962Z,997.2
2017-11-04T04:24:17.353Z,997.2
2017-11-04T04:25:18.747Z,997.2
2017-11-04T04:26:20.140Z,997.1
2017-11-04T04:27:21.534Z,997.1
2017-11-04T04:28:22.920Z,997.1
2017-11-04T04:29:24.359Z,997.1
2017-11-04T04:30:25.709Z,997.1
2017-11-04T04:31:27.100Z,997.1
2017-11-04T04:32:28.493Z,997.1
2017-11-04T04:33:29.882Z,997.1
2017-11-04T04:34:31.271Z,997.1
2017-11-04T04:35:32.665Z,997.1
2017-11-04T04:36:34.056Z,997.1
2017-11-04T04:37:35.449Z,997.1
2017-11-04T04:38:36.838Z,997.1
2017-11-04T04:39:38.233Z,997.1
2017-11-04T04:40:39.628Z,997.1
2017-11-04T04:41:41.018Z,997.0
2017-11-04T04:42:42.408Z,996.9
2017-11-04T04:43:43.799Z,996.9
2017-11-04T04:44:45.190Z,996.9
2017-11-04T04:45:46.584Z,996.8
2017-11-04T04:46:47.974Z,996.8
2017-11-04T04:47:49.366Z,996.9
2017-11-04T04:48:50.756Z,996.8
2017-11-04T04:49:52.147Z,996.8
2017-11-04T04:50:53.539Z,996.8
2017-11-04T04:51:54.930Z,996.8
2017-11-04T04:52:56.319Z,996.8
2017-11-04T04:53:57.712Z,996.8
2017-11-04T04:54:59.106Z,996.8
2017-11-04T04:56:00.503Z,996.7
2017-11-04T04:57:01.888Z,996.8
2017-11-04T04:58:03.279Z,996.8
2017-11-04T04:59:04.673Z,996.8
2017-11-04T05:00:06.064Z,996.8
2017-11-04T05:01:07.457Z,996.8
2017-11-04T05:02:08.849Z,996.8
2017-11-04T05:03:10.251Z,996.8
2017-11-04T05:04:11.643Z,996.8
2017-11-04T05:05:13.034Z,996.8
2017-11-04T05:06:14.426Z,996.8
2017-11-04T05:07:15.821Z,996.8
2017-11-04T05:08:17.211Z,996.7
2017-11-04T05:09:18.609Z,996.7
2017-11-04T05:10:19.997Z,996.7
2017-11-04T05:11:21.386Z,996.8
2017-11-04T05:12:22.778Z,996.8
2017-11-04T05:13:24.171Z,996.8
2017-11-04T05:14:25.561Z,996.8
2017-11-04T05:15:26.955Z,996.8
2017-11-04T05:16:28.349Z,996.8
2017-11-04T05:17:29.737Z,996.7
2017-11-04T05:18:31.127Z,996.7
2017-11-04T05:19:32.517Z,996.7
2017-11-04T05:20:33.907Z,996.7
2017-11-04T05:21:35.301Z,996.7
2017-11-04T05:22:36.699Z,996.6
2017-11-04T05:23:38.092Z,996.7
2017-11-04T05:24:39.486Z,996.7
2017-11-04T05:25:40.874Z,996.7
2017-11-04T05:26:42.266Z,996.7
2017-11-04T05:27:43.664Z,996.6
2017-11-04T05:28:45.049Z,996.7
2017-11-04T05:29:46.444Z,996.7
2017-11-04T05:30:47.839Z,996.7
2017-11-04T05:31:49.229Z,996.7
2017-11-04T05:32:50.621Z,996.6
2017-11-04T05:33:52.009Z,996.6
2017-11-04T05:34:53.405Z,996.6
2017-11-04T05:35:54.794Z,996.6
2017-11-04T05:36:56.192Z,996.6
2017-11-04T05:37:57.584Z,996.6
2017-11-04T05:38:58.974Z,996.5
2017-11-04T05:40:00.363Z,996.6
2017-11-04T05:41:01.757Z,996.5
2017-11-04T05:42:03.160Z,996.5
2017-11-04T05:43:04.556Z,996.5
2017-11-04T05:44:05.946Z,996.5
2017-11-04T05:45:07.338Z,996.5
2017-11-04T05:46:08.729Z,996.5
2017-11-04T05:47:10.126Z,996.5
2017-11-04T05:48:11.510Z,996.5
2017-11-04T05:49:12.903Z,996.5
2017-11-04T05:50:14.297Z,996.5
2017-11-04T05:51:15.688Z,996.5
2017-11-04T05:52:17.081Z,996.5
2017-11-04T05:53:18.479Z,996.5
2017-11-04T05:54:19.871Z,996.5
2017-11-04T05:55:21.264Z,996.4
2017-11-04T05:56:22.653Z,996.5
2017-11-04T05:57:24.046Z,996.4
2017-11-04T05:58:25.441Z,996.4
2017-11-04T05:59:26.842Z,996.5
2017-11-04T06:00:28.224Z,996.5
2017-11-04T06:01:29.616Z,996.5
2017-11-04T06:02:31.012Z,996.5
2017-11-04T06:03:32.408Z,996.5
2017-11-04T06:04:33.797Z,996.5
2017-11-04T06:05:35.190Z,996.5
2017-11-04T06:06:36.582Z,996.5
2017-11-04T06:07:37.975Z,996.5
2017-11-04T06:08:39.366Z,996.5
2017-11-04T06:09:40.762Z,996.4
2017-11-04T06:10:42.154Z,996.4
2017-11-04T06:11:43.553Z,996.4
2017-11-04T06:12:44.944Z,996.3
2017-11-04T06:13:46.335Z,996.4
2017-11-04T06:14:47.728Z,996.4
2017-11-04T06:15:49.118Z,996.4
2017-11-04T06:16:50.511Z,996.5
2017-11-04T06:17:51.904Z,996.5
2017-11-04T06:18:53.299Z,996.5
2017-11-04T06:19:54.693Z,996.5
2017-11-04T06:20:56.088Z,996.4
2017-11-04T06:21:57.486Z,996.4
2017-11-04T06:22:58.870Z,996.4
2017-11-04T06:24:00.260Z,996.4
2017-11-04T06:25:01.651Z,996.3
2017-11-04T06:26:03.053Z,996.4
2017-11-04T06:27:04.444Z,996.4
2017-11-04T06:28:05.839Z,996.4
2017-11-04T06:29:07.241Z,996.4
2017-11-04T06:30:08.626Z,996.4
2017-11-04T06:31:10.018Z,996.4
2017-11-04T06:32:11.412Z,996.4
2017-11-04T06:33:12.802Z,996.4
2017-11-04T06:34:14.204Z,996.4
2017-11-04T06:35:15.597Z,996.4
2017-11-04T06:36:16.987Z,996.4
2017-11-04T06:37:18.378Z,996.4
2017-11-04T06:38:19.771Z,996.4
2017-11-04T06:39:21.166Z,996.4
2017-11-04T06:40:22.558Z,996.5
2017-11-04T06:41:23.953Z,996.5
2017-11-04T06:42:25.349Z,996.5
2017-11-04T06:43:26.741Z,996.4
2017-11-04T06:44:28.134Z,996.4
2017-11-04T06:45:29.528Z,996.4
2017-11-04T06:46:30.919Z,996.4
2017-11-04T06:47:32.312Z,996.4
2017-11-04T06:48:33.707Z,996.4
2017-11-04T06:49:35.103Z,996.4
2017-11-04T06:50:36.495Z,996.4
2017-11-04T06:51:37.892Z,996.3
2017-11-04T06:52:39.285Z,996.3
2017-11-04T06:53:40.681Z,996.3
2017-11-04T06:54:42.081Z,996.3
2017-11-04T06:55:43.469Z,996.3
2017-11-04T06:56:44.866Z,996.3
2017-11-04T06:57:46.258Z,996.2
2017-11-04T06:58:47.654Z,996.3
2017-11-04T06:59:49.050Z,996.2
2017-11-04T07:00:50.444Z,996.2
2017-11-04T07:01:51.843Z,996.2
2017-11-04T07:02:53.239Z,996.2
2017-11-04T07:03:54.635Z,996.3
2017-11-04T07:04:56.035Z,996.3
2017-11-04T07:05:57.468Z,996.3
2017-11-04T07:06:58.862Z,996.3
2017-11-04T07:08:00.258Z,996.3
2017-11-04T07:09:01.654Z,996.3
2017-11-04T07:10:03.049Z,996.3
2017-11-04T07:11:04.448Z,996.2
2017-11-04T07:12:05.844Z,996.3
2017-11-04T07:13:07.232Z,996.2
2017-11-04T07:14:08.628Z,996.2
2017-11-04T07:15:10.020Z,996.2
2017-11-04T07:16:11.416Z,996.2
2017-11-04T07:17:12.819Z,996.2
2017-11-04T07:18:14.209Z,996.2
2017-11-04T07:19:15.605Z,996.2
2017-11-04T07:20:16.999Z,996.3
2017-11-04T07:21:18.402Z,996.3
2017-11-04T07:22:19.797Z,996.3
2017-11-04T07:23:21.192Z,996.3
2017-11-04T07:24:22.590Z,996.3
2017-11-04T07:25:23.987Z,996.3
2017-11-04T07:26:25.380Z,996.3
2017-11-04T07:27:26.773Z,996.3
2017-11-04T07:28:28.168Z,996.3
2017-11-04T07:29:29.564Z,996.3
2017-11-04T07:30:30.961Z,996.3
2017-11-04T07:31:32.356Z,996.3
2017-11-04T07:32:33.751Z,996.3
2017-11-04T07:33:35.149Z,996.3
2017-11-04T07:34:36.551Z,996.3
2017-11-04T07:35:37.947Z,996.3
2017-11-04T07:36:39.349Z,996.3
2017-11-04T07:37:40.747Z,996.3
2017-11-04T07:38:42.144Z,996.2
2017-11-04T07:39:43.543Z,996.2
2017-11-04T07:40:44.936Z,996.2
2017-11-04T07:41:46.331Z,996.2
2017-11-04T07:42:47.732Z,996.2
2017-11-04T07:43:49.126Z,996.2
2017-11-04T07:44:50.525Z,996.2
2017-11-04T07:45:51.919Z,996.2
2017-11-04T07:46:53.315Z,996.2
2017-11-04T07:47:54.715Z,996.2
2017-11-04T07:48:56.108Z,996.2
2017-11-04T07:49:57.508Z,996.1
2017-11-04T07:50:58.904Z,996.1
2017-11-04T07:52:00.300Z,996.1
2017-11-04T07:53:01.696Z,996.1
2017-11-04T07:54:03.098Z,996.1
2017-11-04T07:55:04.492Z,996.1
2017-11-04T07:56:05.887Z,996.0
2017-11-04T07:57:07.284Z,996.0
2017-11-04T07:58:08.699Z,996.0
2017-11-04T07:59:10.097Z,996.1
2017-11-04T08:00:11.494Z,996.1
2017-11-04T08:01:12.895Z,996.0
2017-11-04T08:02:14.308Z,996.1
2017-11-04T08:03:15.695Z,996.1
2017-11-04T08:04:17.095Z,996.1
2017-11-04T08:05:18.497Z,996.1
2017-11-04T08:06:19.889Z,996.0
2017-11-04T08:07:21.286Z,996.0
2017-11-04T08:08:22.688Z,996.0
2017-11-04T08:09:24.083Z,996.0
2017-11-04T08:10:25.482Z,996.0
2017-11-04T08:11:26.883Z,996.0
2017-11-04T08:12:28.282Z,995.9
2017-11-04T08:13:29.681Z,995.9
2017-11-04T08:14:31.079Z,995.9
2017-11-04T08:15:32.476Z,995.9
2017-11-04T08:16:33.876Z,995.9
2017-11-04T08:17:35.276Z,995.9
2017-11-04T08:18:36.676Z,995.9
2017-11-04T08:19:38.076Z,995.8
2017-11-04T08:20:39.561Z,995.9
2017-11-04T08:21:40.964Z,995.9
2017-11-04T08:22:42.365Z,995.9
2017-11-04T08:23:43.761Z,995.9
2017-11-04T08:24:45.164Z,996.0
2017-11-04T08:25:46.566Z,996.0
2017-11-04T08:26:47.960Z,995.9
2017-11-04T08:27:49.376Z,995.9
2017-11-04T08:28:50.776Z,995.9
2017-11-04T08:29:52.173Z,995.8
2017-11-04T08:30:53.569Z,995.9
2017-11-04T08:31:54.973Z,995.9
2017-11-04T08:32:56.363Z,995.9
2017-11-04T08:33:57.761Z,995.9
2017-11-04T08:34:59.231Z,995.9
2017-11-04T08:36:00.630Z,995.9
2017-11-04T08:37:02.029Z,995.9
2017-11-04T08:38:03.426Z,995.9
2017-11-04T08:39:04.825Z,995.9
2017-11-04T08:40:06.223Z,995.9
2017-11-04T08:41:07.624Z,995.8
2017-11-04T08:42:09.021Z,995.9
2017-11-04T08:43:10.420Z,995.9
2017-11-04T08:44:11.826Z,995.9
2017-11-04T08:45:13.227Z,995.8
2017-11-04T08:46:14.628Z,995.8
2017-11-04T08:47:16.023Z,995.7
2017-11-04T08:48:17.421Z,995.7
2017-11-04T08:49:18.827Z,995.6
2017-11-04T08:50:20.238Z,995.6
2017-11-04T08:51:21.630Z,995.6
2017-11-04T08:52:23.037Z,995.6
2017-11-04T08:53:24.455Z,995.5
2017-11-04T08:54:25.835Z,995.6
2017-11-04T08:55:27.237Z,995.5
2017-11-04T08:56:28.633Z,995.5
2017-11-04T08:57:30.046Z,995.5
2017-11-04T08:58:31.529Z,995.5
2017-11-04T08:59:32.927Z,995.5
2017-11-04T09:00:34.328Z,995.4
2017-11-04T09:01:35.724Z,995.4
2017-11-04T09:02:37.804Z,995.4
2017-11-04T09:03:39.185Z,995.3
2017-11-04T09:04:40.589Z,995.4
2017-11-04T09:05:42.083Z,995.4
2017-11-04T09:06:43.482Z,995.5
2017-11-04T09:07:44.881Z,995.4
2017-11-04T09:08:46.344Z,995.4
2017-11-04T09:09:47.765Z,995.3
2017-11-04T09:10:49.271Z,995.2
2017-11-04T09:11:50.725Z,995.2
2017-11-04T09:12:52.146Z,995.1
2017-11-04T09:13:53.551Z,995.1
2017-11-04T09:14:54.945Z,995.1
2017-11-04T09:15:56.348Z,995.1
2017-11-04T09:16:57.749Z,995.3
2017-11-04T09:17:59.342Z,995.3
2017-11-04T09:19:00.773Z,995.2
2017-11-04T09:20:02.246Z,995.2
2017-11-04T09:21:03.645Z,995.3
2017-11-04T09:22:05.043Z,995.3
2017-11-04T09:23:06.454Z,995.3
2017-11-04T09:24:07.865Z,995.2
2017-11-04T09:25:09.269Z,995.3
2017-11-04T09:26:10.681Z,995.3
2017-11-04T09:27:12.115Z,995.3
2017-11-04T09:28:13.526Z,995.3
2017-11-04T09:29:14.929Z,995.2
2017-11-04T09:30:16.334Z,995.2
2017-11-04T09:31:17.731Z,995.1
2017-11-04T09:32:19.137Z,995.2
2017-11-04T09:33:20.536Z,995.3
2017-11-04T09:34:22.016Z,995.4
2017-11-04T09:35:23.417Z,995.4
2017-11-04T09:36:24.871Z,995.4
2017-11-04T09:37:26.321Z,995.4
2017-11-04T09:38:27.723Z,995.4
2017-11-04T09:39:29.129Z,995.3
2017-11-04T09:40:30.533Z,995.3
2017-11-04T09:41:31.935Z,995.2
2017-11-04T09:42:33.337Z,995.2
2017-11-04T09:43:34.742Z,995.2
2017-11-04T09:44:36.141Z,995.2
2017-11-04T09:45:37.552Z,995.3
2017-11-04T09:46:38.959Z,995.2
2017-11-04T09:47:40.362Z,995.2
2017-11-04T09:48:41.767Z,995.3
2017-11-04T09:49:43.261Z,995.4
2017-11-04T09:50:44.664Z,995.4
2017-11-04T09:51:46.177Z,995.4
2017-11-04T09:52:47.580Z,995.4
2017-11-04T09:53:48.988Z,995.4
2017-11-04T09:54:50.394Z,995.4
2017-11-04T09:55:51.801Z,995.4
2017-11-04T09:56:53.206Z,995.4
2017-11-04T09:57:54.610Z,995.4
2017-11-04T09:58:56.013Z,995.5
2017-11-04T09:59:57.417Z,995.4
2017-11-04T10:00:58.820Z,995.4
2017-11-04T10:02:00.226Z,995.3
2017-11-04T10:03:01.688Z,995.2
2017-11-04T10:04:03.104Z,995.1
2017-11-04T10:05:04.513Z,995.2
2017-11-04T10:06:05.959Z,995.2
2017-11-04T10:07:07.439Z,995.1
2017-11-04T10:08:08.839Z,995.1
2017-11-04T10:09:10.249Z,995.0
2017-11-04T10:10:11.654Z,995.0
2017-11-04T10:11:13.057Z,995.0
2017-11-04T10:12:14.461Z,995.0
2017-11-04T10:13:15.865Z,995.0
2017-11-04T10:14:17.267Z,995.1
2017-11-04T10:15:18.673Z,995.1
2017-11-04T10:16:20.076Z,995.1
2017-11-04T10:17:21.478Z,995.1
2017-11-04T10:18:22.881Z,995.0
2017-11-04T10:19:24.371Z,995.0
2017-11-04T10:20:25.776Z,994.9
2017-11-04T10:21:27.178Z,995.0
2017-11-04T10:22:28.584Z,994.9
2017-11-04T10:23:29.988Z,994.9
2017-11-04T10:24:31.395Z,994.9
2017-11-04T10:25:32.806Z,994.8
2017-11-04T10:26:34.203Z,994.9
2017-11-04T10:27:35.609Z,994.8
2017-11-04T10:28:37.013Z,995.0
2017-11-04T10:29:38.415Z,994.8
2017-11-04T10:30:39.820Z,994.8
2017-11-04T10:31:41.224Z,994.8
2017-11-04T10:32:42.718Z,994.8
2017-11-04T10:33:44.120Z,994.8
2017-11-04T10:34:45.526Z,994.8
2017-11-04T10:35:46.927Z,994.8
2017-11-04T10:36:48.343Z,995.0
2017-11-04T10:37:49.747Z,994.9
2017-11-04T10:38:51.154Z,994.8
2017-11-04T10:39:52.556Z,994.7
2017-11-04T10:40:53.965Z,994.7
2017-11-04T10:41:55.374Z,994.6
2017-11-04T10:42:56.777Z,994.6
2017-11-04T10:43:58.189Z,994.6
2017-11-04T10:44:59.597Z,994.6
2017-11-04T10:46:01.013Z,994.7
2017-11-04T10:47:02.449Z,994.6
2017-11-04T10:48:03.852Z,994.7
2017-11-04T10:49:05.259Z,994.6
2017-11-04T10:50:06.660Z,994.6
2017-11-04T10:51:08.075Z,994.6
2017-11-04T10:52:09.470Z,994.6
2017-11-04T10:53:10.876Z,994.6
2017-11-04T10:54:12.276Z,994.6
2017-11-04T10:55:13.680Z,994.5
2017-11-04T10:56:15.085Z,994.6
2017-11-04T10:57:16.489Z,994.5
2017-11-04T10:58:17.892Z,994.5
2017-11-04T10:59:19.296Z,994.5
2017-11-04T11:00:20.700Z,994.5
2017-11-04T11:01:22.104Z,994.4
2017-11-04T11:02:23.508Z,994.5
2017-11-04T11:03:24.909Z,994.4
2017-11-04T11:04:26.313Z,994.4
2017-11-04T11:05:27.715Z,994.4
2017-11-04T11:06:29.121Z,994.4
2017-11-04T11:07:30.529Z,994.3
2017-11-04T11:08:32.031Z,994.4
2017-11-04T11:09:33.433Z,994.3
2017-11-04T11:10:34.835Z,994.3
2017-11-04T11:11:36.239Z,994.3
2017-11-04T11:12:37.639Z,994.2
2017-11-04T11:13:39.046Z,994.3
2017-11-04T11:14:40.454Z,994.3
2017-11-04T11:15:41.865Z,994.3
2017-11-04T11:16:43.331Z,994.3
2017-11-04T11:17:44.735Z,994.3
2017-11-04T11:18:46.136Z,994.3
2017-11-04T11:19:47.542Z,994.2
2017-11-04T11:20:49.016Z,994.3
2017-11-04T11:21:50.419Z,994.3
2017-11-04T11:22:51.822Z,994.3
2017-11-04T11:23:53.226Z,994.3
2017-11-04T11:24:54.629Z,994.4
2017-11-04T11:25:56.036Z,994.2
2017-11-04T11:26:57.439Z,994.2
2017-11-04T11:27:58.843Z,994.2
2017-11-04T11:29:00.245Z,994.1
2017-11-04T11:30:01.661Z,994.1
2017-11-04T11:31:03.054Z,994.1
2017-11-04T11:32:04.459Z,994.1
2017-11-04T11:33:05.862Z,994.1
2017-11-04T11:34:07.266Z,994.2
2017-11-04T11:35:08.667Z,994.2
2017-11-04T11:36:10.072Z,994.1
2017-11-04T11:37:11.477Z,994.1
2017-11-04T11:38:12.894Z,994.2
2017-11-04T11:39:14.334Z,994.1
2017-11-04T11:40:15.712Z,994.1
2017-11-04T11:41:17.112Z,994.1
2017-11-04T11:42:18.525Z,994.2
2017-11-04T11:43:19.921Z,994.2
2017-11-04T11:44:21.322Z,994.2
2017-11-04T11:45:22.723Z,994.3
2017-11-04T11:46:24.216Z,994.4
2017-11-04T11:47:25.621Z,994.3
2017-11-04T11:48:27.022Z,994.2
2017-11-04T11:49:28.426Z,994.3
2017-11-04T11:50:29.831Z,994.2
2017-11-04T11:51:31.232Z,994.3
2017-11-04T11:52:32.636Z,994.2
2017-11-04T11:53:34.041Z,994.1
2017-11-04T11:54:35.444Z,994.1
2017-11-04T11:55:36.846Z,994.1
2017-11-04T11:56:38.253Z,994.1
2017-11-04T11:57:39.665Z,994.0
2017-11-04T11:58:41.059Z,994.0
2017-11-04T11:59:42.466Z,993.9
2017-11-04T12:00:43.869Z,994.0
2017-11-04T12:01:45.272Z,994.0
2017-11-04T12:02:46.675Z,993.9
2017-11-04T12:03:48.087Z,993.9
2017-11-04T12:04:49.493Z,993.9
2017-11-04T12:05:50.897Z,993.9
2017-11-04T12:06:52.343Z,993.9
2017-11-04T12:07:53.748Z,993.8
2017-11-04T12:08:55.150Z,993.8
2017-11-04T12:09:56.554Z,993.8
2017-11-04T12:10:57.957Z,993.7
2017-11-04T12:11:59.362Z,993.7
2017-11-04T12:13:00.763Z,993.7
2017-11-04T12:14:02.167Z,993.7
2017-11-04T12:15:03.575Z,993.7
2017-11-04T12:16:04.983Z,993.7
2017-11-04T12:17:06.389Z,993.7
2017-11-04T12:18:07.799Z,993.7
2017-11-04T12:19:09.204Z,993.7
2017-11-04T12:20:10.609Z,993.7
2017-11-04T12:21:12.009Z,993.7
2017-11-04T12:22:13.414Z,993.7
2017-11-04T12:23:14.823Z,993.7
2017-11-04T12:24:16.228Z,993.6
2017-11-04T12:25:17.635Z,993.6
2017-11-04T12:26:19.162Z,993.6
2017-11-04T12:27:20.567Z,993.7
2017-11-04T12:28:21.972Z,993.6
2017-11-04T12:29:23.374Z,993.6
2017-11-04T12:30:24.779Z,993.6
2017-11-04T12:31:26.181Z,993.5
2017-11-04T12:32:27.588Z,993.6
2017-11-04T12:33:29.001Z,993.5
2017-11-04T12:34:30.403Z,993.4
2017-11-04T12:35:31.806Z,993.5
2017-11-04T12:36:33.210Z,993.6
2017-11-04T12:37:34.616Z,993.4
2017-11-04T12:38:36.020Z,993.5
2017-11-04T12:39:37.424Z,993.4
2017-11-04T12:40:38.785Z,993.4
2017-11-04T12:41:40.186Z,993.5
2017-11-04T12:42:41.590Z,993.5
2017-11-04T12:43:42.995Z,993.5
2017-11-04T12:44:44.408Z,993.4
2017-11-04T12:45:45.816Z,993.4
2017-11-04T12:46:47.221Z,993.4
2017-11-04T12:47:48.631Z,993.5
2017-11-04T12:48:50.032Z,993.5
2017-11-04T12:49:51.438Z,993.4
2017-11-04T12:50:52.841Z,993.5
2017-11-04T12:51:54.248Z,993.5
2017-11-04T12:52:55.654Z,993.4
2017-11-04T12:53:57.060Z,993.3
2017-11-04T12:54:58.470Z,993.4
2017-11-04T12:55:59.920Z,993.4
2017-11-04T12:57:01.328Z,993.3
2017-11-04T12:58:02.732Z,993.3
2017-11-04T12:59:04.153Z,993.3
2017-11-04T13:00:05.560Z,993.3
2017-11-04T13:01:06.965Z,993.2
2017-11-04T13:02:08.374Z,993.3
2017-11-04T13:03:09.776Z,993.2
2017-11-04T13:04:11.182Z,993.2
2017-11-04T13:05:12.583Z,993.1
2017-11-04T13:06:13.996Z,993.2
2017-11-04T13:07:15.402Z,993.1
2017-11-04T13:08:16.814Z,993.1
2017-11-04T13:09:18.213Z,993.1
2017-11-04T13:10:19.618Z,993.1